Time;durP1;ratioP1;P1;durP2;ratioP2;P2;SDS_P1;SDS_P2;PMS_P1;PMS_P2;Temp;Humidity;BMP_temperature;BMP_pressure;BME280_temperature;BME280_humidity;BME280_pressure;Samples;Min_cycle;Max_cycle;Signal;HPM_P1;HPM_P2
2024/01/02 00:01:11;;;;;;;13.05;2.75;;;;;;;;;;5014281;28;20119;-61
2024/01/02 00:03:37;;;;;;;11.48;2.95;;;;;;;;;;5015540;28;20040;-61
2024/01/02 00:06:03;;;;;;;9.82;3.00;;;;;;;;;;5013240;28;20040;-61
2024/01/02 00:08:29;;;;;;;11.18;2.83;;;;;;;;;;5029974;28;20028;-61
2024/01/02 00:10:55;;;;;;;15.00;4.05;;;;;;;;;;5014899;28;20029;-61
2024/01/02 00:13:21;;;;;;;13.65;3.45;;;;;;;;;;5015847;28;20520;-61
2024/01/02 00:15:48;;;;;;;13.05;2.97;;;;;;;;;;5015353;28;20063;-61
2024/01/02 00:18:14;;;;;;;12.75;2.70;;;;;;;;;;5012709;28;20025;-61
2024/01/02 00:20:40;;;;;;;13.18;2.83;;;;;;;;;;5015868;28;20111;-61
2024/01/02 00:23:06;;;;;;;11.85;2.97;;;;;;;;;;5015849;28;20033;-61
2024/01/02 00:25:32;;;;;;;14.50;2.85;;;;;;;;;;5020446;28;21909;-61
2024/01/02 00:27:58;;;;;;;13.77;3.05;;;;;;;;;;5019816;28;20041;-61
2024/01/02 00:30:24;;;;;;;10.52;2.63;;;;;;;;;;5019297;28;20021;-61
2024/01/02 00:32:50;;;;;;;9.70;2.40;;;;;;;;;;5016654;28;20040;-61
2024/01/02 00:35:16;;;;;;;16.70;3.05;;;;;;;;;;5015171;28;20079;-61
2024/01/02 00:37:42;;;;;;;16.00;3.35;;;;;;;;;;5019523;28;20021;-61
2024/01/02 00:40:09;;;;;;;10.57;3.20;;;;;;;;;;5017430;28;20579;-61
2024/01/02 00:42:35;;;;;;;11.90;2.45;;;;;;;;;;5018402;28;20041;-61
2024/01/02 00:45:02;;;;;;;15.85;3.38;;;;;;;;;;5018474;28;21364;-61
2024/01/02 00:47:28;;;;;;;12.15;2.67;;;;;;;;;;5015776;28;20041;-61
2024/01/02 00:49:54;;;;;;;15.77;2.60;;;;;;;;;;5016873;28;20025;-61
2024/01/02 00:52:21;;;;;;;11.77;2.75;;;;;;;;;;5018145;28;20037;-61
2024/01/02 00:54:47;;;;;;;10.63;2.28;;;;;;;;;;5018738;28;20096;-61
2024/01/02 00:57:13;;;;;;;14.80;2.60;;;;;;;;;;5034439;28;21834;-61
2024/01/02 00:59:39;;;;;;;10.10;2.28;;;;;;;;;;5016896;28;20590;-61
2024/01/02 01:02:05;;;;;;;13.48;2.90;;;;;;;;;;5018506;28;20421;-61
2024/01/02 01:04:31;;;;;;;11.68;2.67;;;;;;;;;;5018294;28;20385;-60
2024/01/02 01:06:57;;;;;;;11.93;2.55;;;;;;;;;;5023750;28;21548;-60
2024/01/02 01:09:23;;;;;;;12.73;2.95;;;;;;;;;;5024485;28;20033;-60
2024/01/02 01:11:49;;;;;;;9.95;2.65;;;;;;;;;;5024558;28;20033;-60
2024/01/02 01:14:15;;;;;;;8.30;2.30;;;;;;;;;;5024049;28;20088;-60
2024/01/02 01:16:41;;;;;;;17.08;3.92;;;;;;;;;;5023204;28;20044;-60
2024/01/02 01:19:07;;;;;;;10.10;2.30;;;;;;;;;;5024273;28;20048;-60
2024/01/02 01:21:33;;;;;;;10.13;2.25;;;;;;;;;;5022903;28;20033;-60
2024/01/02 01:24:00;;;;;;;11.75;2.95;;;;;;;;;;5023106;28;20032;-60
2024/01/02 01:26:26;;;;;;;9.68;2.20;;;;;;;;;;5023616;28;20029;-60
2024/01/02 01:28:52;;;;;;;13.90;2.53;;;;;;;;;;5023695;28;20112;-60
2024/01/02 01:31:18;;;;;;;13.90;2.60;;;;;;;;;;5023318;28;20764;-60
2024/01/02 01:33:44;;;;;;;11.40;2.15;;;;;;;;;;5022538;28;20128;-60
2024/01/02 01:36:10;;;;;;;16.30;2.42;;;;;;;;;;5023438;28;20117;-60
2024/01/02 01:38:36;;;;;;;10.02;2.10;;;;;;;;;;5023488;28;20119;-60
2024/01/02 01:41:03;;;;;;;8.23;2.10;;;;;;;;;;5023167;28;20091;-60
2024/01/02 01:43:29;;;;;;;8.85;1.95;;;;;;;;;;5023173;28;20102;-60
2024/01/02 01:45:55;;;;;;;11.75;2.42;;;;;;;;;;5023122;28;20029;-60
2024/01/02 01:48:21;;;;;;;11.85;2.53;;;;;;;;;;5022350;28;20026;-60
2024/01/02 01:50:48;;;;;;;10.43;2.05;;;;;;;;;;5023631;28;20285;-60
2024/01/02 01:53:15;;;;;;;9.48;2.42;;;;;;;;;;5023459;28;20574;-60
2024/01/02 01:55:41;;;;;;;11.00;2.30;;;;;;;;;;5023712;28;20087;-60
2024/01/02 01:58:07;;;;;;;13.82;3.22;;;;;;;;;;5022794;28;20037;-59
2024/01/02 02:00:34;;;;;;;10.95;2.50;;;;;;;;;;5023453;28;20037;-59
2024/01/02 02:03:00;;;;;;;10.80;2.05;;;;;;;;;;5023524;28;20031;-60
2024/01/02 02:05:26;;;;;;;11.88;2.50;;;;;;;;;;5023593;28;21600;-60
2024/01/02 02:07:53;;;;;;;11.82;2.30;;;;;;;;;;5022630;28;20082;-59
2024/01/02 02:10:20;;;;;;;7.97;1.90;;;;;;;;;;5023349;28;20029;-60
2024/01/02 02:12:46;;;;;;;14.43;2.33;;;;;;;;;;5022322;28;20071;-60
2024/01/02 02:15:13;;;;;;;14.85;2.42;;;;;;;;;;5023977;28;20085;-60
2024/01/02 02:17:39;;;;;;;15.98;3.55;;;;;;;;;;5022006;28;20048;-60
2024/01/02 02:20:06;;;;;;;10.30;2.13;;;;;;;;;;5023535;28;20995;-60
2024/01/02 02:22:36;;;;;;;9.70;2.17;;;;;;;;;;5020528;28;20040;-60
2024/01/02 02:25:03;;;;;;;12.05;2.17;;;;;;;;;;5022951;28;21024;-60
2024/01/02 02:27:29;;;;;;;13.35;2.63;;;;;;;;;;5022710;28;20033;-60
2024/01/02 02:29:55;;;;;;;14.43;3.40;;;;;;;;;;5021577;28;20484;-60
2024/01/02 02:32:22;;;;;;;10.35;2.40;;;;;;;;;;5023738;28;20056;-60
2024/01/02 02:34:48;;;;;;;11.00;2.33;;;;;;;;;;5022574;28;20067;-60
2024/01/02 02:37:14;;;;;;;14.43;2.30;;;;;;;;;;5023507;28;20033;-60
2024/01/02 02:39:40;;;;;;;12.48;2.40;;;;;;;;;;5021831;28;20036;-60
2024/01/02 02:42:06;;;;;;;12.43;2.38;;;;;;;;;;5039016;28;20045;-60
2024/01/02 02:44:33;;;;;;;11.60;2.72;;;;;;;;;;5023002;28;20150;-60
2024/01/02 02:46:59;;;;;;;13.02;2.83;;;;;;;;;;5020665;28;20025;-60
2024/01/02 02:49:26;;;;;;;7.63;2.80;;;;;;;;;;5022472;28;20088;-60
2024/01/02 02:51:52;;;;;;;8.60;3.00;;;;;;;;;;5021477;28;20086;-60
2024/01/02 02:54:18;;;;;;;9.95;3.65;;;;;;;;;;5022591;28;20063;-60
2024/01/02 02:56:45;;;;;;;8.73;3.13;;;;;;;;;;5021601;28;20021;-60
2024/01/02 02:59:11;;;;;;;12.48;3.08;;;;;;;;;;5022616;28;20075;-60
2024/01/02 03:01:37;;;;;;;12.93;3.15;;;;;;;;;;5022028;28;20055;-60
2024/01/02 03:04:04;;;;;;;9.32;3.30;;;;;;;;;;5021996;28;20020;-60
2024/01/02 03:06:30;;;;;;;8.82;2.92;;;;;;;;;;5021498;28;20025;-60
2024/01/02 03:08:56;;;;;;;14.75;3.53;;;;;;;;;;5021618;28;20114;-60
2024/01/02 03:11:22;;;;;;;8.27;3.30;;;;;;;;;;5022119;28;20041;-59
2024/01/02 03:13:48;;;;;;;9.07;3.17;;;;;;;;;;5022076;28;20032;-59
2024/01/02 03:16:15;;;;;;;7.30;3.35;;;;;;;;;;5021808;28;20029;-59
2024/01/02 03:18:41;;;;;;;10.70;3.85;;;;;;;;;;5022199;28;20061;-60
2024/01/02 03:21:10;;;;;;;13.40;3.40;;;;;;;;;;5022327;28;20140;-60
2024/01/02 03:23:36;;;;;;;16.05;3.45;;;;;;;;;;5022079;28;20036;-60
2024/01/02 03:26:02;;;;;;;12.23;3.63;;;;;;;;;;5021731;28;20021;-60
2024/01/02 03:28:29;;;;;;;14.95;4.28;;;;;;;;;;5020089;28;20021;-60
2024/01/02 03:30:55;;;;;;;11.95;3.63;;;;;;;;;;5020919;28;20044;-60
2024/01/02 03:33:21;;;;;;;11.18;4.03;;;;;;;;;;5022080;28;20029;-60
2024/01/02 03:35:47;;;;;;;11.05;3.50;;;;;;;;;;5036898;28;21296;-60
2024/01/02 03:38:14;;;;;;;11.55;3.63;;;;;;;;;;5021535;28;20041;-60
2024/01/02 03:40:40;;;;;;;13.13;3.95;;;;;;;;;;5021390;28;20492;-60
2024/01/02 03:43:06;;;;;;;12.63;3.53;;;;;;;;;;5022613;28;20393;-60
2024/01/02 03:45:32;;;;;;;8.85;3.70;;;;;;;;;;5020940;28;20029;-60
2024/01/02 03:47:59;;;;;;;9.70;3.35;;;;;;;;;;5019455;28;20063;-60
2024/01/02 03:50:25;;;;;;;8.77;3.80;;;;;;;;;;5022043;28;20516;-60
2024/01/02 03:52:51;;;;;;;9.98;3.03;;;;;;;;;;5021816;28;20033;-60
2024/01/02 03:55:17;;;;;;;9.65;3.70;;;;;;;;;;5021655;28;20062;-60
2024/01/02 03:57:44;;;;;;;10.90;2.95;;;;;;;;;;5020971;28;21908;-60
2024/01/02 04:00:10;;;;;;;10.85;2.97;;;;;;;;;;5025291;28;20029;-60
2024/01/02 04:02:36;;;;;;;9.02;3.08;;;;;;;;;;5026417;28;20108;-60
2024/01/02 04:05:03;;;;;;;9.80;3.15;;;;;;;;;;5025293;28;20119;-60
2024/01/02 04:07:29;;;;;;;7.30;2.65;;;;;;;;;;5025872;28;20055;-60
2024/01/02 04:09:55;;;;;;;13.32;3.15;;;;;;;;;;5025975;28;20009;-61
2024/01/02 04:12:21;;;;;;;8.73;2.83;;;;;;;;;;5024941;28;20079;-61
2024/01/02 04:14:48;;;;;;;8.85;3.25;;;;;;;;;;5025323;28;20041;-61
2024/01/02 04:17:14;;;;;;;10.80;2.60;;;;;;;;;;5024906;28;20978;-61
2024/01/02 04:19:40;;;;;;;11.05;3.25;;;;;;;;;;5026545;28;20029;-61
2024/01/02 04:22:06;;;;;;;7.45;2.80;;;;;;;;;;5025305;28;20032;-60
2024/01/02 04:24:32;;;;;;;9.07;2.85;;;;;;;;;;5025872;28;20037;-60
2024/01/02 04:26:58;;;;;;;7.88;2.70;;;;;;;;;;5024845;28;20144;-61
2024/01/02 04:29:25;;;;;;;10.02;2.40;;;;;;;;;;5025907;28;20037;-60
2024/01/02 04:31:51;;;;;;;9.32;4.10;;;;;;;;;;5024070;28;20029;-60
2024/01/02 04:34:17;;;;;;;9.82;3.13;;;;;;;;;;5025842;28;20048;-60
2024/01/02 04:36:44;;;;;;;5.75;2.58;;;;;;;;;;5024709;28;20040;-60
2024/01/02 04:39:10;;;;;;;10.40;3.05;;;;;;;;;;5025720;28;20025;-60
2024/01/02 04:41:36;;;;;;;12.55;3.10;;;;;;;;;;5023962;28;21150;-60
2024/01/02 04:44:02;;;;;;;13.95;3.25;;;;;;;;;;5025287;28;20057;-60
2024/01/02 04:46:28;;;;;;;12.15;3.05;;;;;;;;;;5024946;28;20029;-60
2024/01/02 04:48:57;;;;;;;9.63;2.88;;;;;;;;;;5024672;28;20078;-60
2024/01/02 04:51:23;;;;;;;9.82;2.50;;;;;;;;;;5025502;28;20048;-60
2024/01/02 04:53:50;;;;;;;7.47;2.83;;;;;;;;;;5023774;28;20049;-60
2024/01/02 04:56:16;;;;;;;7.07;2.40;;;;;;;;;;5024712;28;20037;-60
2024/01/02 04:58:42;;;;;;;7.93;2.28;;;;;;;;;;5024331;28;20021;-60
2024/01/02 05:01:08;;;;;;;10.20;2.28;;;;;;;;;;5024561;28;20025;-60
2024/01/02 05:03:34;;;;;;;14.02;3.78;;;;;;;;;;5024486;28;20041;-60
2024/01/02 05:06:00;;;;;;;9.40;2.05;;;;;;;;;;5025217;28;20382;-60
2024/01/02 05:08:26;;;;;;;7.75;2.05;;;;;;;;;;5024125;28;20492;-60
2024/01/02 05:10:53;;;;;;;5.65;2.08;;;;;;;;;;5024157;28;20033;-60
2024/01/02 05:13:19;;;;;;;7.13;1.65;;;;;;;;;;5025202;28;20112;-60
2024/01/02 05:15:45;;;;;;;10.13;2.10;;;;;;;;;;5026076;28;20036;-60
2024/01/02 05:18:11;;;;;;;6.53;1.58;;;;;;;;;;5024238;28;20069;-60
2024/01/02 05:20:37;;;;;;;10.25;2.20;;;;;;;;;;5024561;28;20480;-60
2024/01/02 05:23:04;;;;;;;6.40;1.73;;;;;;;;;;5023912;28;20040;-60
2024/01/02 05:25:31;;;;;;;8.15;1.90;;;;;;;;;;5024822;28;20033;-60
2024/01/02 05:27:57;;;;;;;5.38;1.42;;;;;;;;;;5024850;28;20120;-60
2024/01/02 05:30:24;;;;;;;8.00;1.85;;;;;;;;;;5024409;28;20566;-60
2024/01/02 05:32:50;;;;;;;9.10;1.83;;;;;;;;;;5025035;28;20080;-60
2024/01/02 05:35:16;;;;;;;6.78;2.00;;;;;;;;;;5023620;28;20120;-60
2024/01/02 05:37:42;;;;;;;5.82;1.60;;;;;;;;;;5024518;28;20116;-60
2024/01/02 05:40:09;;;;;;;8.55;1.83;;;;;;;;;;5025072;28;20071;-60
2024/01/02 05:42:35;;;;;;;4.43;1.55;;;;;;;;;;5025195;28;20072;-60
2024/01/02 05:45:01;;;;;;;8.25;1.70;;;;;;;;;;5025521;28;20027;-60
2024/01/02 05:47:27;;;;;;;8.75;2.03;;;;;;;;;;5024641;28;20053;-60
2024/01/02 05:49:53;;;;;;;4.40;1.45;;;;;;;;;;5024402;28;20064;-60
2024/01/02 05:52:20;;;;;;;5.07;1.58;;;;;;;;;;5025339;28;21307;-60
2024/01/02 05:54:46;;;;;;;5.03;1.45;;;;;;;;;;5025164;28;20128;-60
2024/01/02 05:57:12;;;;;;;5.97;1.60;;;;;;;;;;5026136;28;20784;-60
2024/01/02 05:59:38;;;;;;;8.50;1.38;;;;;;;;;;5025724;28;20033;-60
2024/01/02 06:02:04;;;;;;;5.32;1.23;;;;;;;;;;5024617;28;21319;-60
2024/01/02 06:04:30;;;;;;;5.60;1.20;;;;;;;;;;5025142;28;20120;-60
2024/01/02 06:06:56;;;;;;;6.15;1.30;;;;;;;;;;5023866;28;20064;-60
2024/01/02 06:09:23;;;;;;;5.18;1.40;;;;;;;;;;5024224;28;20040;-60
2024/01/02 06:11:49;;;;;;;2.53;1.23;;;;;;;;;;5024885;28;20044;-60
2024/01/02 06:14:16;;;;;;;3.33;1.25;;;;;;;;;;5025430;28;20037;-60
2024/01/02 06:16:42;;;;;;;4.75;1.42;;;;;;;;;;5024433;28;20028;-60
2024/01/02 06:19:08;;;;;;;3.53;1.30;;;;;;;;;;5026484;28;20025;-60
2024/01/02 06:21:34;;;;;;;2.85;0.93;;;;;;;;;;5023790;28;20029;-60
2024/01/02 06:24:00;;;;;;;3.75;1.02;;;;;;;;;;5023300;28;20040;-60
2024/01/02 06:26:26;;;;;;;5.90;1.25;;;;;;;;;;5024985;28;20025;-60
2024/01/02 06:28:52;;;;;;;3.80;1.00;;;;;;;;;;5024669;28;20575;-60
2024/01/02 06:31:21;;;;;;;3.10;1.15;;;;;;;;;;5024915;28;20030;-60
2024/01/02 06:33:48;;;;;;;2.00;0.80;;;;;;;;;;5025512;28;20036;-60
2024/01/02 06:36:14;;;;;;;6.22;1.00;;;;;;;;;;5023969;28;20032;-60
2024/01/02 06:38:40;;;;;;;2.05;0.85;;;;;;;;;;5024262;28;20080;-60
2024/01/02 06:41:06;;;;;;;2.30;0.75;;;;;;;;;;5023397;28;20041;-60
2024/01/02 06:43:32;;;;;;;1.20;0.77;;;;;;;;;;5024454;28;20072;-60
2024/01/02 06:45:58;;;;;;;2.13;0.80;;;;;;;;;;5025682;28;20042;-60
2024/01/02 06:48:24;;;;;;;1.80;0.90;;;;;;;;;;5023998;28;20507;-60
2024/01/02 06:50:50;;;;;;;3.35;0.80;;;;;;;;;;5024927;28;20040;-60
2024/01/02 06:53:16;;;;;;;3.85;0.90;;;;;;;;;;5024867;28;20041;-60
2024/01/02 06:55:42;;;;;;;1.35;0.82;;;;;;;;;;5023996;28;20048;-60
2024/01/02 06:58:09;;;;;;;1.65;0.80;;;;;;;;;;5024184;28;20025;-60
2024/01/02 07:00:35;;;;;;;4.32;0.82;;;;;;;;;;5024186;28;20029;-60
2024/01/02 07:03:01;;;;;;;1.48;0.70;;;;;;;;;;5023424;28;20033;-60
2024/01/02 07:05:27;;;;;;;2.17;0.82;;;;;;;;;;5023987;28;20017;-60
2024/01/02 07:07:53;;;;;;;3.70;0.90;;;;;;;;;;5024541;28;20044;-61
2024/01/02 07:10:19;;;;;;;1.88;0.70;;;;;;;;;;5024212;28;20102;-60
2024/01/02 07:12:45;;;;;;;2.00;0.60;;;;;;;;;;5023958;28;20028;-60
2024/01/02 07:15:11;;;;;;;1.83;0.73;;;;;;;;;;5023257;28;20041;-60
2024/01/02 07:17:37;;;;;;;3.03;0.85;;;;;;;;;;5022425;28;20044;-60
2024/01/02 07:20:04;;;;;;;3.20;0.80;;;;;;;;;;5023917;28;20069;-60
2024/01/02 07:22:30;;;;;;;2.25;0.98;;;;;;;;;;5021239;28;20042;-60
2024/01/02 07:24:56;;;;;;;2.33;0.80;;;;;;;;;;5023014;28;20036;-60
2024/01/02 07:27:22;;;;;;;2.80;0.90;;;;;;;;;;5022105;28;20700;-60
2024/01/02 07:29:49;;;;;;;2.53;0.90;;;;;;;;;;5021607;28;20029;-60
2024/01/02 07:32:15;;;;;;;2.53;1.10;;;;;;;;;;5022340;28;20683;-60
2024/01/02 07:34:41;;;;;;;3.13;0.80;;;;;;;;;;5021884;28;20044;-60
2024/01/02 07:37:08;;;;;;;4.07;1.50;;;;;;;;;;5021701;28;20094;-60
2024/01/02 07:39:34;;;;;;;2.85;1.00;;;;;;;;;;5020402;28;20605;-60
2024/01/02 07:42:00;;;;;;;1.73;1.00;;;;;;;;;;5020001;28;20089;-60
2024/01/02 07:44:27;;;;;;;2.95;1.73;;;;;;;;;;5020802;28;20601;-60
2024/01/02 07:46:54;;;;;;;4.18;1.65;;;;;;;;;;5019831;28;20035;-60
2024/01/02 07:49:20;;;;;;;3.70;1.80;;;;;;;;;;5019686;28;20068;-61
2024/01/02 07:51:46;;;;;;;3.50;1.88;;;;;;;;;;5021615;28;20065;-60
2024/01/02 07:54:12;;;;;;;3.63;1.90;;;;;;;;;;5021522;28;20033;-60
2024/01/02 07:56:39;;;;;;;2.97;1.65;;;;;;;;;;5019940;28;20033;-61
2024/01/02 07:59:05;;;;;;;4.05;1.80;;;;;;;;;;5025101;28;20037;-61
2024/01/02 08:01:31;;;;;;;3.58;1.80;;;;;;;;;;5021234;28;20033;-61
2024/01/02 08:03:57;;;;;;;4.45;1.90;;;;;;;;;;5022229;28;20099;-61
2024/01/02 08:06:23;;;;;;;4.85;2.20;;;;;;;;;;5022200;28;20489;-61
2024/01/02 08:08:51;;;;;;;5.38;2.30;;;;;;;;;;5020833;28;20516;-61
2024/01/02 08:11:17;;;;;;;4.65;2.17;;;;;;;;;;5022498;28;20033;-61
2024/01/02 08:14:35;;;;;;;5.03;2.60;;;;;;;;;;5023082;28;20048;-61
2024/01/02 08:16:45;;;;;;;7.13;2.70;;;;;;;;;;5011696;28;20110;-61
2024/01/02 08:19:13;;;;;;;5.30;2.45;;;;;;;;;;5019399;28;20190;-60
2024/01/02 08:21:39;;;;;;;6.60;2.53;;;;;;;;;;5021492;28;20737;-60
2024/01/02 08:24:05;;;;;;;9.00;3.20;;;;;;;;;;5022756;28;21738;-61
2024/01/02 08:26:31;;;;;;;9.88;3.55;;;;;;;;;;5021859;28;20033;-61
2024/01/02 08:28:58;;;;;;;9.40;3.33;;;;;;;;;;5023138;28;20033;-61
2024/01/02 08:31:24;;;;;;;9.07;3.75;;;;;;;;;;5021308;28;20119;-61
2024/01/02 08:33:50;;;;;;;9.85;3.45;;;;;;;;;;5022604;28;20745;-61
2024/01/02 08:36:17;;;;;;;11.23;4.22;;;;;;;;;;5023177;28;20571;-61
2024/01/02 08:38:43;;;;;;;16.85;4.60;;;;;;;;;;5022497;28;20124;-61
2024/01/02 08:41:09;;;;;;;14.70;4.35;;;;;;;;;;5022476;28;20126;-60
2024/01/02 08:43:35;;;;;;;14.55;4.93;;;;;;;;;;5021999;28;21054;-60
2024/01/02 08:46:01;;;;;;;18.48;4.25;;;;;;;;;;5026003;28;20052;-60
2024/01/02 08:48:27;;;;;;;16.77;4.50;;;;;;;;;;5024668;28;20020;-60
2024/01/02 08:50:53;;;;;;;19.33;4.32;;;;;;;;;;5026364;28;20065;-60
2024/01/02 08:53:19;;;;;;;15.95;4.88;;;;;;;;;;5023826;28;20064;-61
2024/01/02 08:55:46;;;;;;;19.38;4.35;;;;;;;;;;5026084;28;20044;-61
2024/01/02 08:58:12;;;;;;;16.17;3.70;;;;;;;;;;5026486;28;20029;-61
2024/01/02 09:00:38;;;;;;;17.92;4.47;;;;;;;;;;5025796;28;20032;-61
2024/01/02 09:03:04;;;;;;;27.17;4.35;;;;;;;;;;5024498;28;20029;-61
2024/01/02 09:05:30;;;;;;;19.85;3.65;;;;;;;;;;5024405;28;20112;-61
2024/01/02 09:07:58;;;;;;;22.50;3.30;;;;;;;;;;5024292;28;20084;-61
2024/01/02 09:10:24;;;;;;;16.17;3.20;;;;;;;;;;5024916;28;20633;-61
2024/01/02 09:12:51;;;;;;;24.45;3.63;;;;;;;;;;5023181;28;20041;-61
2024/01/02 09:15:17;;;;;;;23.10;4.10;;;;;;;;;;5022204;28;20025;-61
2024/01/02 09:17:43;;;;;;;21.65;3.40;;;;;;;;;;5036405;28;20033;-61
2024/01/02 09:20:11;;;;;;;17.63;3.55;;;;;;;;;;5022200;28;20513;-61
2024/01/02 09:22:37;;;;;;;20.75;2.80;;;;;;;;;;5020902;28;20123;-61
2024/01/02 09:25:03;;;;;;;24.25;3.90;;;;;;;;;;5022379;28;20151;-61
2024/01/02 09:27:30;;;;;;;19.73;3.17;;;;;;;;;;5021089;28;20037;-60
2024/01/02 09:29:59;;;;;;;21.73;3.45;;;;;;;;;;5024462;28;20515;-60
2024/01/02 09:32:26;;;;;;;25.48;3.40;;;;;;;;;;5023300;28;20155;-61
2024/01/02 09:34:52;;;;;;;19.40;3.10;;;;;;;;;;5023912;28;20083;-61
2024/01/02 09:37:18;;;;;;;22.23;3.03;;;;;;;;;;5023340;28;20033;-60
2024/01/02 09:39:45;;;;;;;18.73;2.92;;;;;;;;;;5022342;28;20042;-60
2024/01/02 09:42:32;;;;;;;20.88;3.10;;;;;;;;;;5023290;28;20041;-60
2024/01/02 09:45:03;;;;;;;22.50;3.45;;;;;;;;;;5022976;28;20038;-60
2024/01/02 09:47:40;;;;;;;16.40;3.25;;;;;;;;;;5023822;28;20030;-60
2024/01/02 09:50:12;;;;;;;19.80;2.60;;;;;;;;;;5022320;28;20103;-61
2024/01/02 09:52:57;;;;;;;21.70;3.20;;;;;;;;;;5022382;28;20029;-60
2024/01/02 09:55:35;;;;;;;15.98;2.47;;;;;;;;;;5022459;28;20033;-60
2024/01/02 09:58:09;;;;;;;19.05;3.47;;;;;;;;;;5022648;28;21903;-60
2024/01/02 10:00:46;;;;;;;30.92;4.88;;;;;;;;;;5023823;28;20954;-60
2024/01/02 10:03:12;;;;;;;20.27;3.03;;;;;;;;;;5021670;28;20112;-60
2024/01/02 10:05:45;;;;;;;18.33;2.33;;;;;;;;;;5023080;28;20037;-61
2024/01/02 10:08:22;;;;;;;15.10;2.55;;;;;;;;;;5022895;28;20151;-61
2024/01/02 10:10:51;;;;;;;21.33;3.10;;;;;;;;;;5021966;28;20049;-61
2024/01/02 10:13:27;;;;;;;21.33;3.40;;;;;;;;;;5022130;28;20076;-60
2024/01/02 10:15:56;;;;;;;27.60;3.60;;;;;;;;;;5023259;28;20033;-61
2024/01/02 10:18:49;;;;;;;20.27;3.38;;;;;;;;;;5022207;28;20037;-61
2024/01/02 10:21:21;;;;;;;22.45;2.90;;;;;;;;;;5023144;28;20818;-60
2024/01/02 10:24:06;;;;;;;19.70;2.95;;;;;;;;;;5023601;28;20816;-60
2024/01/02 10:26:33;;;;;;;29.90;5.13;;;;;;;;;;5024574;28;20017;-61
2024/01/02 10:29:04;;;;;;;22.92;3.22;;;;;;;;;;5021576;28;21732;-60
2024/01/02 10:31:42;;;;;;;23.30;3.42;;;;;;;;;;5023041;28;20087;-60
2024/01/02 10:34:14;;;;;;;31.50;4.97;;;;;;;;;;5023902;28;20035;-60
2024/01/02 10:36:48;;;;;;;24.60;4.03;;;;;;;;;;5023306;28;20496;-60
2024/01/02 10:39:23;;;;;;;21.13;3.25;;;;;;;;;;5022626;28;20519;-60
2024/01/02 10:41:49;;;;;;;26.50;5.10;;;;;;;;;;5021956;28;21024;-60
2024/01/02 10:44:38;;;;;;;15.15;3.10;;;;;;;;;;5022886;28;20075;-60
2024/01/02 10:47:07;;;;;;;28.65;3.60;;;;;;;;;;5021939;28;21167;-60
2024/01/02 10:49:47;;;;;;;25.40;3.72;;;;;;;;;;5021495;28;20028;-61
2024/01/02 10:52:18;;;;;;;32.13;3.40;;;;;;;;;;5021137;28;20144;-61
2024/01/02 10:54:56;;;;;;;22.70;3.58;;;;;;;;;;5020596;28;20112;-61
2024/01/02 10:57:35;;;;;;;19.55;3.83;;;;;;;;;;5022667;28;21034;-60
2024/01/02 11:00:10;;;;;;;27.10;3.60;;;;;;;;;;5022283;28;20025;-60
2024/01/02 11:02:46;;;;;;;24.55;3.60;;;;;;;;;;5021865;28;20247;-60
2024/01/02 11:05:16;;;;;;;22.85;3.70;;;;;;;;;;5021181;28;20079;-61
2024/01/02 11:07:46;;;;;;;21.30;3.58;;;;;;;;;;5021894;28;20032;-61
2024/01/02 11:10:14;;;;;;;20.90;3.65;;;;;;;;;;5022949;28;20030;-61
2024/01/02 11:12:54;;;;;;;24.80;4.07;;;;;;;;;;5022855;28;20032;-61
2024/01/02 11:15:22;;;;;;;22.70;3.72;;;;;;;;;;5022465;28;20956;-61
2024/01/02 11:17:51;;;;;;;27.05;3.70;;;;;;;;;;5021670;28;20037;-61
2024/01/02 11:20:20;;;;;;;36.10;4.70;;;;;;;;;;5021853;28;20021;-61
2024/01/02 11:23:04;;;;;;;18.15;3.03;;;;;;;;;;5022754;28;20816;-61
2024/01/02 11:25:32;;;;;;;20.13;3.30;;;;;;;;;;5022595;28;20071;-61
2024/01/02 11:27:59;;;;;;;20.35;3.38;;;;;;;;;;5023453;28;20029;-61
2024/01/02 11:30:27;;;;;;;19.63;3.30;;;;;;;;;;5022003;28;20020;-61
2024/01/02 11:33:25;;;;;;;19.83;3.38;;;;;;;;;;5021901;28;20024;-61
2024/01/02 11:36:03;;;;;;;22.80;3.50;;;;;;;;;;4988154;28;20045;-61
2024/01/02 11:38:35;;;;;;;23.52;3.55;;;;;;;;;;5022176;28;20542;-61
2024/01/02 11:41:05;;;;;;;25.55;5.03;;;;;;;;;;5021695;28;20033;-61
2024/01/02 11:43:46;;;;;;;14.38;3.70;;;;;;;;;;5021025;28;20053;-61
2024/01/02 11:46:14;;;;;;;24.42;3.92;;;;;;;;;;5019992;28;20036;-61
2024/01/02 11:49:00;;;;;;;33.88;3.50;;;;;;;;;;5021711;28;20025;-61
2024/01/02 11:51:27;;;;;;;26.67;3.80;;;;;;;;;;5021086;28;20021;-61
2024/01/02 11:54:03;;;;;;;30.20;4.38;;;;;;;;;;5018612;28;20037;-61
2024/01/02 11:56:33;;;;;;;28.55;4.30;;;;;;;;;;5020275;28;20396;-61
2024/01/02 11:59:05;;;;;;;23.50;5.25;;;;;;;;;;5020201;28;20160;-61
2024/01/02 12:01:38;;;;;;;34.67;8.27;;;;;;;;;;5019513;28;20063;-61
2024/01/02 12:04:12;;;;;;;39.58;12.43;;;;;;;;;;5020190;28;20033;-60
2024/01/02 12:06:38;;;;;;;42.03;13.82;;;;;;;;;;5019075;28;20032;-61
2024/01/02 12:09:09;;;;;;;47.35;13.77;;;;;;;;;;5020121;28;20029;-61
2024/01/02 12:11:37;;;;;;;42.38;13.88;;;;;;;;;;5016441;28;20040;-61
2024/01/02 12:14:11;;;;;;;42.80;13.98;;;;;;;;;;5017614;28;20033;-61
2024/01/02 12:16:37;;;;;;;44.75;13.13;;;;;;;;;;5021598;28;20056;-61
2024/01/02 12:19:06;;;;;;;53.55;13.18;;;;;;;;;;5021809;28;20029;-61
2024/01/02 12:21:34;;;;;;;39.83;10.20;;;;;;;;;;5021784;28;20032;-61
2024/01/02 12:24:02;;;;;;;39.15;9.20;;;;;;;;;;5025464;28;20904;-61
2024/01/02 12:26:29;;;;;;;46.28;11.10;;;;;;;;;;5023267;28;20052;-61
2024/01/02 12:28:56;;;;;;;45.58;11.18;;;;;;;;;;5025328;28;20029;-61
2024/01/02 12:31:55;;;;;;;41.38;11.38;;;;;;;;;;5023920;28;20034;-61
2024/01/02 12:34:31;;;;;;;42.22;10.73;;;;;;;;;;5002928;28;20701;-61
2024/01/02 12:37:02;;;;;;;37.58;8.82;;;;;;;;;;5024053;28;20082;-61
2024/01/02 12:39:31;;;;;;;34.10;7.82;;;;;;;;;;5023312;28;21470;-61
2024/01/02 12:42:01;;;;;;;36.20;7.70;;;;;;;;;;5023153;28;20049;-61
2024/01/02 12:44:29;;;;;;;38.10;6.88;;;;;;;;;;5026894;28;20033;-61
2024/01/02 12:47:21;;;;;;;34.50;7.57;;;;;;;;;;5005127;28;20036;-61
2024/01/02 12:50:08;;;;;;;30.55;7.00;;;;;;;;;;5022646;28;20041;-61
2024/01/02 12:52:44;;;;;;;30.00;5.57;;;;;;;;;;5025898;28;20037;-61
2024/01/02 12:55:10;;;;;;;35.83;5.75;;;;;;;;;;5023227;28;20056;-61
2024/01/02 12:57:38;;;;;;;30.10;5.50;;;;;;;;;;5024550;28;20659;-61
2024/01/02 13:00:05;;;;;;;27.25;4.85;;;;;;;;;;5024144;28;20028;-61
2024/01/02 13:02:36;;;;;;;36.35;6.20;;;;;;;;;;5023911;28;20825;-61
2024/01/02 13:05:03;;;;;;;26.38;5.43;;;;;;;;;;5024230;28;20029;-61
2024/01/02 13:07:30;;;;;;;31.27;6.47;;;;;;;;;;5022414;28;20061;-61
2024/01/02 13:09:59;;;;;;;35.30;6.35;;;;;;;;;;5024045;28;21872;-61
2024/01/02 13:12:26;;;;;;;33.83;5.97;;;;;;;;;;5022916;28;20037;-61
2024/01/02 13:14:52;;;;;;;34.22;5.50;;;;;;;;;;5022730;28;20037;-61
2024/01/02 13:17:19;;;;;;;26.45;4.80;;;;;;;;;;5021063;28;20088;-61
2024/01/02 13:19:45;;;;;;;30.50;4.97;;;;;;;;;;5022989;28;20033;-61
2024/01/02 13:22:17;;;;;;;30.58;5.35;;;;;;;;;;5022259;28;20591;-61
2024/01/02 13:24:47;;;;;;;31.02;5.22;;;;;;;;;;5024247;28;20037;-61
2024/01/02 13:27:16;;;;;;;32.58;4.72;;;;;;;;;;5023289;28;20024;-61
2024/01/02 13:29:46;;;;;;;27.50;5.75;;;;;;;;;;5022456;28;20037;-61
2024/01/02 13:32:13;;;;;;;38.15;6.78;;;;;;;;;;5022450;28;20724;-61
2024/01/02 13:34:39;;;;;;;32.70;6.22;;;;;;;;;;5022192;28;20029;-61
2024/01/02 13:37:05;;;;;;;32.70;5.45;;;;;;;;;;5021423;28;20811;-61
2024/01/02 13:39:38;;;;;;;28.95;4.75;;;;;;;;;;5021484;28;20055;-61
2024/01/02 13:42:05;;;;;;;39.78;6.00;;;;;;;;;;5022838;28;20049;-61
2024/01/02 13:44:33;;;;;;;30.15;5.53;;;;;;;;;;5023367;28;20545;-61
2024/01/02 13:46:59;;;;;;;28.63;4.88;;;;;;;;;;5023189;28;20029;-61
2024/01/02 13:49:46;;;;;;;28.10;4.80;;;;;;;;;;5023049;28;20504;-61
2024/01/02 13:52:12;;;;;;;36.42;5.07;;;;;;;;;;5014692;28;20037;-61
2024/01/02 13:54:42;;;;;;;37.00;5.80;;;;;;;;;;5023572;28;20041;-61
2024/01/02 13:57:08;;;;;;;39.38;5.07;;;;;;;;;;5023409;28;20032;-61
2024/01/02 13:59:35;;;;;;;33.17;6.10;;;;;;;;;;5024325;28;20210;-61
2024/01/02 14:02:10;;;;;;;34.90;6.05;;;;;;;;;;5023849;28;20068;-61
2024/01/02 14:04:36;;;;;;;32.15;5.35;;;;;;;;;;5024410;28;20024;-61
2024/01/02 14:07:04;;;;;;;36.42;5.40;;;;;;;;;;5023774;28;20032;-61
2024/01/02 14:09:30;;;;;;;34.60;5.32;;;;;;;;;;5024122;28;20115;-61
2024/01/02 14:12:04;;;;;;;31.23;5.38;;;;;;;;;;5023556;28;20488;-61
2024/01/02 14:14:49;;;;;;;30.65;6.80;;;;;;;;;;5023183;28;20033;-61
2024/01/02 14:17:17;;;;;;;40.95;6.13;;;;;;;;;;5024203;28;20031;-61
2024/01/02 14:19:45;;;;;;;33.70;6.32;;;;;;;;;;5023859;28;20786;-61
2024/01/02 14:22:20;;;;;;;37.17;6.75;;;;;;;;;;5023811;28;20030;-61
2024/01/02 14:24:52;;;;;;;33.83;6.78;;;;;;;;;;5023679;28;20021;-61
2024/01/02 14:27:21;;;;;;;36.65;6.65;;;;;;;;;;5024634;28;20044;-61
2024/01/02 14:29:57;;;;;;;41.08;6.82;;;;;;;;;;5023596;28;20056;-61
2024/01/02 14:32:59;;;;;;;39.17;8.15;;;;;;;;;;5024613;28;20033;-61
2024/01/02 14:35:33;;;;;;;39.95;6.90;;;;;;;;;;4958984;28;20045;-61
2024/01/02 14:38:11;;;;;;;41.95;7.72;;;;;;;;;;5014903;28;20049;-61
2024/01/02 14:40:49;;;;;;;37.85;7.43;;;;;;;;;;5023460;28;20084;-61